Time;durP1;ratioP1;P1;durP2;ratioP2;P2;SDS_P1;SDS_P2;PMS_P1;PMS_P2;Temp;Humidity;BMP_temperature;BMP_pressure;BME280_temperature;BME280_humidity;BME280_pressure;Samples;Min_cycle;Max_cycle;Signal;HPM_P1;HPM_P2
2022/08/31 00:04:25;;;;;;;3.30;0.70;;;17.40;78.00;;;;;;5037650;28;20048;-43
2022/08/31 00:06:51;;;;;;;0.82;0.68;;;17.40;77.90;;;;;;5045917;28;20552;-46
2022/08/31 00:09:18;;;;;;;1.70;0.55;;;17.40;78.00;;;;;;5033374;28;20053;-45
2022/08/31 00:11:45;;;;;;;3.15;0.90;;;17.40;77.70;;;;;;5048933;28;20465;-46
2022/08/31 00:14:13;;;;;;;1.42;0.70;;;17.40;77.60;;;;;;5050614;28;20556;-46
2022/08/31 00:16:41;;;;;;;0.90;0.68;;;17.30;77.50;;;;;;5051122;28;20445;-45
2022/08/31 00:19:08;;;;;;;1.73;0.70;;;17.30;77.40;;;;;;5051814;28;20128;-46
2022/08/31 00:21:34;;;;;;;2.03;0.55;;;17.30;77.10;;;;;;5033002;28;20076;-48
2022/08/31 00:24:01;;;;;;;2.80;0.63;;;17.20;76.90;;;;;;5051690;28;20139;-49
2022/08/31 00:26:28;;;;;;;2.90;0.50;;;17.20;77.00;;;;;;5050557;28;20102;-48
2022/08/31 00:28:55;;;;;;;1.95;0.60;;;17.20;76.60;;;;;;5033474;28;20095;-50
2022/08/31 00:31:23;;;;;;;2.38;0.70;;;17.20;76.60;;;;;;5045294;28;20045;-48
2022/08/31 00:33:51;;;;;;;1.30;0.73;;;17.10;76.40;;;;;;5048611;28;20455;-44
2022/08/31 00:36:18;;;;;;;1.42;0.60;;;17.10;76.30;;;;;;5051929;28;20041;-46
2022/08/31 00:38:47;;;;;;;4.05;0.65;;;17.10;76.30;;;;;;5040219;28;20073;-46
2022/08/31 00:41:13;;;;;;;6.82;0.80;;;17.00;76.20;;;;;;5030115;28;20088;-47
2022/08/31 00:43:48;;;;;;;1.25;0.60;;;17.00;76.30;;;;;;5050750;28;20106;-49
2022/08/31 00:46:16;;;;;;;1.58;0.60;;;17.00;76.10;;;;;;5052048;28;20143;-46
2022/08/31 00:48:48;;;;;;;1.27;0.50;;;17.00;75.90;;;;;;5049086;28;20123;-46
2022/08/31 00:51:15;;;;;;;;;;;17.00;75.50;;;;;;5023778;28;20049;-50
2022/08/31 00:53:43;;;;;;;1.35;0.63;;;16.80;74.90;;;;;;5045647;28;20336;-46
2022/08/31 00:56:10;;;;;;;3.60;0.60;;;16.90;75.10;;;;;;5035771;28;20077;-51
2022/08/31 00:58:37;;;;;;;3.53;0.52;;;16.90;74.70;;;;;;5038179;28;20103;-45
2022/08/31 01:01:04;;;;;;;2.85;0.60;;;16.80;74.10;;;;;;5045084;28;20099;-42
2022/08/31 01:03:30;;;;;;;2.70;0.60;;;16.80;74.10;;;;;;5045051;28;20491;-42
2022/08/31 01:05:59;;;;;;;1.95;0.90;;;16.70;73.90;;;;;;5048034;28;20088;-44
2022/08/31 01:08:25;;;;;;;1.73;0.60;;;16.70;74.00;;;;;;5034089;28;20128;-47
2022/08/31 01:10:52;;;;;;;1.10;0.50;;;16.70;74.10;;;;;;5047507;28;20531;-47
2022/08/31 01:13:19;;;;;;;0.95;0.43;;;16.70;74.30;;;;;;5030434;28;20049;-47
2022/08/31 01:15:48;;;;;;;1.88;0.50;;;16.60;74.30;;;;;;5050474;28;20091;-41
2022/08/31 01:18:15;;;;;;;0.93;0.80;;;16.60;74.40;;;;;;5038400;28;20370;-46
2022/08/31 01:20:47;;;;;;;1.30;0.70;;;16.60;74.40;;;;;;5050698;28;20059;-45
2022/08/31 01:23:16;;;;;;;2.25;0.55;;;16.60;74.30;;;;;;5033202;28;20053;-47
2022/08/31 01:25:43;;;;;;;3.95;0.70;;;16.50;74.40;;;;;;5034711;28;20143;-47
2022/08/31 01:28:10;;;;;;;0.98;0.50;;;16.50;74.40;;;;;;5055854;28;20441;-47
2022/08/31 01:30:36;;;;;;;1.38;0.50;;;16.50;74.70;;;;;;5054484;28;20081;-49
2022/08/31 01:33:03;;;;;;;2.00;0.73;;;16.50;74.70;;;;;;5050509;28;20124;-46
2022/08/31 01:35:30;;;;;;;2.92;0.50;;;16.40;74.80;;;;;;5054004;28;20056;-48
2022/08/31 01:37:57;;;;;;;4.25;0.63;;;16.40;74.90;;;;;;5036621;28;20053;-45
2022/08/31 01:40:27;;;;;;;1.88;0.98;;;16.40;74.80;;;;;;5054803;28;20451;-47
2022/08/31 01:42:53;;;;;;;1.40;0.65;;;16.30;74.80;;;;;;5053670;28;20049;-45
2022/08/31 01:45:20;;;;;;;0.57;0.47;;;16.30;74.70;;;;;;5055720;28;20091;-47
2022/08/31 01:47:47;;;;;;;1.38;0.52;;;16.30;74.80;;;;;;5048618;28;20131;-46
2022/08/31 01:50:14;;;;;;;1.02;0.52;;;16.30;74.90;;;;;;5023798;28;20516;-46
2022/08/31 01:52:41;;;;;;;1.65;0.40;;;16.20;74.80;;;;;;5053510;28;20548;-47
2022/08/31 01:55:08;;;;;;;2.30;0.80;;;16.20;75.60;;;;;;5054489;28;20476;-46
2022/08/31 01:57:36;;;;;;;1.40;0.70;;;16.20;75.10;;;;;;5044391;28;20055;-48
2022/08/31 02:00:04;;;;;;;1.90;0.70;;;16.10;74.90;;;;;;5050552;28;20041;-45
2022/08/31 02:02:31;;;;;;;1.42;0.60;;;16.10;75.00;;;;;;5053735;28;20052;-46
2022/08/31 02:04:58;;;;;;;1.42;0.57;;;16.00;75.20;;;;;;5048937;28;20077;-46
2022/08/31 02:07:25;;;;;;;2.45;0.90;;;16.00;75.20;;;;;;5048391;28;20554;-46
2022/08/31 02:09:51;;;;;;;2.33;0.60;;;16.00;75.20;;;;;;5042674;28;20057;-51
2022/08/31 02:12:18;;;;;;;1.42;0.60;;;16.00;75.20;;;;;;5046760;28;20132;-43
2022/08/31 02:14:46;;;;;;;3.40;0.47;;;15.90;75.20;;;;;;5029478;28;20068;-46
2022/08/31 02:17:13;;;;;;;2.28;0.60;;;15.90;75.20;;;;;;5054146;28;20543;-47
2022/08/31 02:19:40;;;;;;;3.40;0.52;;;15.80;75.40;;;;;;5033615;28;20072;-46
2022/08/31 02:22:07;;;;;;;0.85;0.55;;;15.80;75.40;;;;;;5035615;28;20131;-45
2022/08/31 02:24:33;;;;;;;1.88;0.45;;;15.80;75.60;;;;;;5053929;28;20546;-45
2022/08/31 02:27:00;;;;;;;0.95;0.43;;;15.70;75.60;;;;;;5054874;28;20052;-46
2022/08/31 02:29:27;;;;;;;3.30;0.57;;;15.70;75.60;;;;;;5052901;28;20072;-46
2022/08/31 02:31:55;;;;;;;0.47;0.38;;;15.60;75.60;;;;;;5035070;28;20135;-46
2022/08/31 02:34:22;;;;;;;1.73;0.40;;;15.60;75.70;;;;;;5053298;28;20128;-47
2022/08/31 02:36:49;;;;;;;5.88;0.57;;;15.50;75.60;;;;;;5052303;28;20094;-47
2022/08/31 02:39:16;;;;;;;1.10;0.60;;;15.50;75.60;;;;;;5035200;28;20051;-47
2022/08/31 02:41:42;;;;;;;1.20;0.50;;;15.40;75.70;;;;;;5052775;28;20103;-38
2022/08/31 02:44:09;;;;;;;1.15;0.60;;;15.40;75.70;;;;;;5040400;28;20047;-43
2022/08/31 02:46:36;;;;;;;1.33;0.40;;;15.30;75.80;;;;;;5029028;28;20083;-45
2022/08/31 02:49:04;;;;;;;1.20;0.60;;;15.30;75.90;;;;;;5035526;28;20135;-45
2022/08/31 02:51:31;;;;;;;0.77;0.50;;;15.20;76.10;;;;;;5053686;28;20049;-45
2022/08/31 02:53:58;;;;;;;1.20;0.63;;;15.20;76.30;;;;;;5042341;28;20064;-48
2022/08/31 02:56:25;;;;;;;1.23;0.40;;;15.20;76.60;;;;;;5035314;28;20135;-47
2022/08/31 02:58:53;;;;;;;0.47;0.30;;;15.10;76.80;;;;;;5053536;28;20072;-45
2022/08/31 03:01:21;;;;;;;1.70;0.57;;;15.10;76.90;;;;;;5050916;28;20067;-49
2022/08/31 03:03:47;;;;;;;1.60;0.70;;;15.00;77.20;;;;;;5053170;28;20053;-48
2022/08/31 03:06:16;;;;;;;1.35;0.50;;;15.00;77.30;;;;;;5053292;28;20099;-46
2022/08/31 03:08:42;;;;;;;0.73;0.50;;;14.90;77.50;;;;;;5052394;28;20049;-45
2022/08/31 03:11:09;;;;;;;2.70;0.50;;;14.90;77.90;;;;;;5050858;28;20106;-49
2022/08/31 03:13:36;;;;;;;0.73;0.40;;;14.90;78.00;;;;;;5034544;28;20508;-46
2022/08/31 03:16:03;;;;;;;1.27;0.60;;;14.90;78.40;;;;;;5022509;28;20084;-48
2022/08/31 03:18:30;;;;;;;2.40;0.60;;;14.80;78.90;;;;;;5039171;28;20045;-48
2022/08/31 03:20:57;;;;;;;0.50;0.40;;;14.70;79.20;;;;;;5033655;28;20835;-47
2022/08/31 03:23:25;;;;;;;4.18;0.60;;;14.70;79.20;;;;;;5047527;28;20073;-45
2022/08/31 03:25:52;;;;;;;1.15;0.40;;;14.70;79.70;;;;;;5036017;28;20076;-47
2022/08/31 03:28:19;;;;;;;1.02;0.50;;;14.60;79.60;;;;;;5035534;28;20088;-46
2022/08/31 03:30:46;;;;;;;1.60;0.50;;;14.60;79.80;;;;;;5045331;28;20076;-46
2022/08/31 03:33:12;;;;;;;1.38;0.60;;;14.60;80.30;;;;;;5052322;28;20432;-47
2022/08/31 03:35:43;;;;;;;1.13;0.65;;;14.50;80.60;;;;;;5048390;28;20541;-47
2022/08/31 03:38:11;;;;;;;0.75;0.52;;;14.50;81.00;;;;;;5032821;28;20099;-41
2022/08/31 03:40:40;;;;;;;1.65;0.90;;;14.50;81.30;;;;;;5048609;28;20472;-46
2022/08/31 03:43:10;;;;;;;0.90;0.60;;;14.40;81.80;;;;;;5053337;28;20072;-40
2022/08/31 03:45:37;;;;;;;2.03;0.50;;;14.40;82.00;;;;;;5053341;28;20041;-43
2022/08/31 03:48:05;;;;;;;1.77;0.68;;;14.30;82.00;;;;;;5052169;28;20048;-44
2022/08/31 03:50:31;;;;;;;2.15;0.60;;;14.30;82.20;;;;;;5042099;28;20055;-45
2022/08/31 03:52:58;;;;;;;1.02;0.60;;;14.30;82.40;;;;;;5034429;28;20488;-45
2022/08/31 03:55:27;;;;;;;2.90;0.85;;;14.30;82.80;;;;;;5052042;28;20056;-45
2022/08/31 03:57:55;;;;;;;0.63;0.52;;;14.20;83.10;;;;;;5051787;28;20053;-47
2022/08/31 04:00:22;;;;;;;2.45;0.70;;;14.20;83.10;;;;;;5050280;28;20084;-48
2022/08/31 04:02:49;;;;;;;0.88;0.60;;;14.20;83.50;;;;;;5051896;28;20125;-45
2022/08/31 04:05:16;;;;;;;1.95;0.73;;;14.20;83.50;;;;;;5051822;28;20076;-48
2022/08/31 04:07:43;;;;;;;2.67;0.47;;;14.20;83.70;;;;;;5051362;28;20370;-48
2022/08/31 04:10:10;;;;;;;2.15;0.60;;;14.20;83.90;;;;;;5050727;28;20068;-37
2022/08/31 04:12:37;;;;;;;2.78;0.52;;;14.10;83.80;;;;;;5033037;28;20052;-46
2022/08/31 04:15:06;;;;;;;12.68;0.98;;;14.10;84.40;;;;;;5051241;28;20080;-47
2022/08/31 04:17:33;;;;;;;4.65;0.80;;;14.10;84.60;;;;;;5049948;28;20044;-46
2022/08/31 04:20:00;;;;;;;3.05;0.80;;;14.00;84.70;;;;;;5049115;28;20041;-49
2022/08/31 04:22:26;;;;;;;2.20;0.60;;;14.00;85.00;;;;;;5033155;28;20102;-50
2022/08/31 04:24:53;;;;;;;1.60;0.60;;;14.00;85.10;;;;;;5051013;28;20084;-48
2022/08/31 04:27:20;;;;;;;5.05;0.95;;;14.00;84.80;;;;;;5052405;28;20136;-42
2022/08/31 04:29:47;;;;;;;5.28;0.70;;;14.00;84.80;;;;;;5044924;28;20079;-46
2022/08/31 04:32:15;;;;;;;1.27;0.55;;;14.00;85.10;;;;;;5051699;28;20437;-46
2022/08/31 04:34:42;;;;;;;0.70;0.60;;;13.90;85.30;;;;;;5048726;28;20072;-46
2022/08/31 04:37:13;;;;;;;2.13;0.90;;;13.90;85.80;;;;;;5040814;28;20045;-48
2022/08/31 04:39:40;;;;;;;1.87;0.70;;;13.80;86.00;;;;;;5048404;28;20053;-49
2022/08/31 04:42:06;;;;;;;2.58;0.70;;;13.80;86.00;;;;;;5050538;28;20838;-47
2022/08/31 04:44:33;;;;;;;0.70;0.68;;;13.80;86.60;;;;;;5044826;28;20071;-47
2022/08/31 04:47:00;;;;;;;2.85;0.63;;;13.80;86.60;;;;;;5048626;28;20123;-44
2022/08/31 04:49:28;;;;;;;3.17;0.77;;;13.80;87.00;;;;;;5049924;28;20072;-45
2022/08/31 04:51:55;;;;;;;3.05;0.80;;;13.80;87.90;;;;;;5049567;28;20088;-46
2022/08/31 04:54:22;;;;;;;1.40;0.70;;;13.70;88.00;;;;;;5048971;28;20514;-46
2022/08/31 04:56:48;;;;;;;3.22;0.88;;;13.70;87.80;;;;;;5039000;28;20086;-45
2022/08/31 04:59:16;;;;;;;2.13;1.02;;;13.70;88.40;;;;;;5050390;28;20045;-47
2022/08/31 05:01:44;;;;;;;4.03;0.95;;;13.70;89.10;;;;;;5053403;28;20136;-43
2022/08/31 05:04:11;;;;;;;1.35;0.70;;;13.60;89.50;;;;;;5054472;28;20037;-41
2022/08/31 05:06:40;;;;;;;2.22;0.85;;;13.60;89.10;;;;;;5053902;28;20485;-49
2022/08/31 05:09:08;;;;;;;1.00;0.70;;;13.60;89.50;;;;;;5053091;28;20041;-37
2022/08/31 05:11:35;;;;;;;3.17;0.68;;;13.60;90.00;;;;;;5053217;28;20443;-46
2022/08/31 05:14:02;;;;;;;1.73;0.80;;;13.60;90.00;;;;;;5053476;28;20133;-47
2022/08/31 05:16:30;;;;;;;1.42;0.70;;;13.60;90.10;;;;;;5038454;28;20087;-47
2022/08/31 05:18:57;;;;;;;6.03;0.77;;;13.60;90.40;;;;;;5054558;28;20064;-46
2022/08/31 05:21:27;;;;;;;1.35;0.90;;;13.60;90.40;;;;;;5050689;28;20472;-42
2022/08/31 05:23:55;;;;;;;3.38;0.88;;;13.60;90.60;;;;;;5053077;28;20048;-50
2022/08/31 05:26:23;;;;;;;2.22;0.77;;;13.60;90.80;;;;;;5050892;28;20370;-46
2022/08/31 05:28:50;;;;;;;2.75;0.90;;;13.60;91.00;;;;;;5050109;28;20113;-45
2022/08/31 05:31:17;;;;;;;2.80;0.70;;;13.60;91.00;;;;;;5053500;28;20119;-44
2022/08/31 05:33:43;;;;;;;1.60;0.80;;;13.60;91.20;;;;;;5049523;28;20124;-43
2022/08/31 05:36:10;;;;;;;2.10;0.80;;;13.60;91.40;;;;;;5048530;28;20037;-42
2022/08/31 05:38:37;;;;;;;3.55;0.90;;;13.60;91.50;;;;;;5053014;28;20075;-43
2022/08/31 05:41:06;;;;;;;3.38;1.10;;;13.60;91.80;;;;;;5052200;28;20362;-44
2022/08/31 05:43:33;;;;;;;2.88;1.05;;;13.60;92.00;;;;;;5040023;28;20051;-41
2022/08/31 05:46:00;;;;;;;3.65;0.98;;;13.60;91.80;;;;;;5046745;28;20088;-47
2022/08/31 05:48:32;;;;;;;3.03;0.77;;;13.60;91.80;;;;;;5050311;28;20427;-47
2022/08/31 05:51:00;;;;;;;2.78;0.90;;;13.70;92.10;;;;;;5033450;28;20037;-42
2022/08/31 05:53:27;;;;;;;5.22;1.00;;;13.70;92.20;;;;;;5048441;28;20084;-44
2022/08/31 05:55:59;;;;;;;2.28;1.45;;;13.70;92.20;;;;;;5033671;28;20144;-47
2022/08/31 05:58:27;;;;;;;1.70;0.90;;;13.70;92.60;;;;;;5052068;28;20040;-49
2022/08/31 06:00:54;;;;;;;1.65;0.90;;;13.80;92.40;;;;;;5052035;28;20057;-47
2022/08/31 06:03:21;;;;;;;3.75;1.08;;;13.80;92.50;;;;;;5052435;28;20052;-45
2022/08/31 06:05:49;;;;;;;1.60;0.90;;;13.90;92.70;;;;;;5045440;28;20052;-40
2022/08/31 06:08:16;;;;;;;1.55;0.90;;;14.00;92.90;;;;;;5036500;28;20460;-41
2022/08/31 06:10:43;;;;;;;2.47;0.65;;;14.00;92.80;;;;;;5047130;28;20043;-42
2022/08/31 06:13:12;;;;;;;3.28;1.02;;;14.10;92.70;;;;;;5036094;28;20060;-42
2022/08/31 06:15:40;;;;;;;1.50;0.95;;;14.20;92.80;;;;;;5035875;28;20052;-46
2022/08/31 06:18:07;;;;;;;4.55;0.88;;;14.30;92.90;;;;;;5048737;28;20064;-43
2022/08/31 06:20:36;;;;;;;3.35;1.05;;;14.50;92.80;;;;;;5033665;28;20051;-49
2022/08/31 06:23:04;;;;;;;1.50;0.90;;;14.60;92.70;;;;;;5042491;28;20042;-39
2022/08/31 06:25:31;;;;;;;2.30;0.93;;;14.70;92.60;;;;;;5036175;28;20082;-41
2022/08/31 06:27:58;;;;;;;1.52;1.00;;;14.80;92.70;;;;;;5052843;28;20051;-41
2022/08/31 06:30:26;;;;;;;4.82;1.10;;;14.80;92.80;;;;;;5049063;28;20048;-40
2022/08/31 06:32:54;;;;;;;3.38;0.95;;;14.90;92.80;;;;;;5051407;28;20522;-40
2022/08/31 06:35:21;;;;;;;1.75;1.00;;;15.00;92.80;;;;;;5051712;28;20081;-44
2022/08/31 06:37:47;;;;;;;2.63;1.08;;;15.10;92.80;;;;;;5047335;28;20084;-37
2022/08/31 06:40:14;;;;;;;3.20;1.10;;;15.20;92.80;;;;;;5023103;28;20127;-39
2022/08/31 06:42:41;;;;;;;2.85;1.15;;;15.20;92.90;;;;;;5035840;28;20057;-40
2022/08/31 06:45:09;;;;;;;2.65;0.82;;;15.40;92.90;;;;;;5054097;28;20063;-39
2022/08/31 06:47:35;;;;;;;1.88;0.98;;;15.50;92.90;;;;;;5030909;28;20445;-39
2022/08/31 06:50:04;;;;;;;5.00;1.00;;;15.60;92.90;;;;;;5035623;28;20137;-39
2022/08/31 06:52:31;;;;;;;3.90;1.13;;;15.80;92.80;;;;;;5053180;28;20041;-39
2022/08/31 06:54:58;;;;;;;2.45;1.02;;;15.90;92.60;;;;;;5052132;28;20037;-46
2022/08/31 06:57:25;;;;;;;2.20;0.93;;;16.00;92.50;;;;;;5034685;28;20080;-48
2022/08/31 06:59:52;;;;;;;1.55;0.98;;;16.20;92.50;;;;;;5036068;28;20049;-44
2022/08/31 07:02:19;;;;;;;1.65;1.00;;;16.30;92.40;;;;;;5028256;28;20102;-44
2022/08/31 07:04:46;;;;;;;3.42;1.00;;;16.40;92.20;;;;;;5051939;28;20401;-50
2022/08/31 07:07:14;;;;;;;1.38;0.90;;;16.50;92.10;;;;;;5052332;28;20037;-48
2022/08/31 07:09:40;;;;;;;2.28;1.15;;;16.60;92.00;;;;;;5053306;28;20041;-44
2022/08/31 07:12:08;;;;;;;4.85;1.35;;;16.70;91.80;;;;;;5046565;28;20388;-45
2022/08/31 07:14:36;;;;;;;3.72;0.90;;;16.80;91.60;;;;;;5029766;28;20438;-49
2022/08/31 07:17:03;;;;;;;2.03;1.17;;;16.90;91.80;;;;;;5053279;28;20392;-45
2022/08/31 07:19:30;;;;;;;2.47;0.90;;;17.00;91.20;;;;;;5052903;28;20102;-49
2022/08/31 07:21:57;;;;;;;2.67;0.88;;;17.20;91.00;;;;;;5035536;28;20045;-44
2022/08/31 07:24:27;;;;;;;8.30;0.90;;;17.20;90.80;;;;;;5053716;28;20123;-40
2022/08/31 07:26:56;;;;;;;2.45;0.73;;;17.30;90.60;;;;;;5053628;28;20147;-40
2022/08/31 07:29:29;;;;;;;4.30;0.80;;;17.40;90.50;;;;;;5053914;28;20122;-43
2022/08/31 07:31:56;;;;;;;3.17;0.82;;;17.50;90.40;;;;;;5033554;28;20452;-45
2022/08/31 07:34:25;;;;;;;3.63;0.73;;;17.60;89.90;;;;;;5035150;28;20087;-48
2022/08/31 07:42:23;;;;;;;2.63;1.08;;;17.90;88.70;;;;;;5051679;28;20053;-47
2022/08/31 07:44:50;;;;;;;3.17;1.23;;;18.00;87.90;;;;;;5049746;28;20084;-46
2022/08/31 07:47:18;;;;;;;2.90;1.08;;;18.10;87.30;;;;;;5050579;28;20067;-42
2022/08/31 07:49:46;;;;;;;6.18;0.90;;;18.20;87.00;;;;;;5033199;28;20041;-44
2022/08/31 07:52:14;;;;;;;2.40;1.00;;;18.40;86.70;;;;;;5048900;28;20041;-42
2022/08/31 07:54:45;;;;;;;5.03;0.90;;;18.60;86.30;;;;;;5052718;28;20160;-49
2022/08/31 07:57:12;;;;;;;2.88;1.02;;;18.70;85.80;;;;;;5042603;28;20362;-49
2022/08/31 07:59:40;;;;;;;5.07;1.15;;;18.80;85.40;;;;;;5032069;28;20045;-46
2022/08/31 08:02:07;;;;;;;3.28;0.90;;;18.90;84.70;;;;;;5046716;28;20500;-50
2022/08/31 08:04:37;;;;;;;1.35;0.70;;;19.00;84.30;;;;;;5045253;28;20102;-46
2022/08/31 08:07:05;;;;;;;1.30;0.83;;;19.10;84.50;;;;;;5033034;28;20157;-43
2022/08/31 08:09:32;;;;;;;3.45;1.00;;;19.20;84.30;;;;;;5050755;28;20476;-47
2022/08/31 08:12:03;;;;;;;2.13;0.80;;;19.30;83.60;;;;;;5051416;28;20075;-46
2022/08/31 08:14:30;;;;;;;1.90;0.80;;;19.50;83.10;;;;;;5051201;28;20048;-49
2022/08/31 08:16:56;;;;;;;5.00;0.70;;;19.60;82.50;;;;;;5033972;28;20053;-49
2022/08/31 08:19:23;;;;;;;4.18;0.75;;;19.70;81.50;;;;;;5036959;28;20618;-47
2022/08/31 08:21:50;;;;;;;3.92;0.75;;;19.70;81.60;;;;;;5045209;28;20052;-48
2022/08/31 08:24:17;;;;;;;2.90;0.88;;;19.80;80.90;;;;;;5030147;28;20124;-47
2022/08/31 08:26:44;;;;;;;5.05;0.93;;;19.80;81.20;;;;;;5051658;28;20052;-47
2022/08/31 08:29:13;;;;;;;2.83;0.80;;;20.00;80.90;;;;;;5052678;28;20088;-48
2022/08/31 08:31:39;;;;;;;2.15;0.77;;;20.20;80.80;;;;;;5032775;28;20049;-47
2022/08/31 08:34:06;;;;;;;5.18;0.98;;;20.30;80.00;;;;;;5014821;28;20054;-47
2022/08/31 08:36:34;;;;;;;5.80;0.80;;;20.30;78.70;;;;;;5028458;28;20128;-47
2022/08/31 08:39:01;;;;;;;7.70;1.10;;;20.40;78.30;;;;;;5031442;28;20045;-47
2022/08/31 08:41:28;;;;;;;5.38;0.70;;;20.40;78.50;;;;;;5041858;28;20124;-47
2022/08/31 08:43:57;;;;;;;2.78;0.90;;;20.50;78.70;;;;;;5032665;28;20049;-49
2022/08/31 08:46:29;;;;;;;3.33;0.90;;;20.60;77.90;;;;;;5033177;28;20440;-47
2022/08/31 08:48:56;;;;;;;1.33;0.88;;;20.70;77.70;;;;;;5026083;28;20051;-52
2022/08/31 08:51:23;;;;;;;1.75;0.65;;;20.90;77.60;;;;;;5032772;28;20456;-51
2022/08/31 08:54:00;;;;;;;4.28;1.05;;;21.00;77.00;;;;;;5015171;28;20393;-48
2022/08/31 08:56:27;;;;;;;8.48;0.95;;;21.10;76.10;;;;;;5015201;28;20397;-46
2022/08/31 08:58:54;;;;;;;7.95;0.93;;;21.10;75.70;;;;;;5038038;28;20203;-47
2022/08/31 09:01:24;;;;;;;3.38;0.80;;;21.20;75.60;;;;;;5033737;28;20057;-48
2022/08/31 09:03:58;;;;;;;2.85;0.73;;;21.30;76.10;;;;;;5052287;28;20539;-48
2022/08/31 09:06:30;;;;;;;1.75;0.73;;;21.50;74.50;;;;;;5044826;28;20514;-48
2022/08/31 09:09:17;;;;;;;1.65;0.70;;;21.50;73.60;;;;;;5048769;28;20073;-48
2022/08/31 09:11:51;;;;;;;1.75;0.60;;;21.60;72.80;;;;;;5029042;28;20053;-45
2022/08/31 09:14:28;;;;;;;4.65;0.55;;;21.50;72.80;;;;;;5034297;28;20045;-46
2022/08/31 09:16:58;;;;;;;4.05;0.45;;;21.50;73.20;;;;;;5034662;28;20045;-47
2022/08/31 09:19:26;;;;;;;4.45;0.80;;;21.60;73.10;;;;;;5051068;28;20182;-48
2022/08/31 09:21:54;;;;;;;3.45;0.70;;;21.80;72.60;;;;;;5034484;28;20084;-48
2022/08/31 09:24:25;;;;;;;1.90;0.90;;;21.90;71.90;;;;;;5052137;28;20071;-48
2022/08/31 09:27:03;;;;;;;4.90;0.82;;;22.00;71.30;;;;;;5052022;28;20049;-46
2022/08/31 09:29:31;;;;;;;3.85;0.77;;;22.10;71.40;;;;;;5036642;28;20063;-45
2022/08/31 09:32:05;;;;;;;5.80;0.82;;;22.20;70.60;;;;;;5050496;28;20083;-46
2022/08/31 09:34:36;;;;;;;4.68;0.65;;;22.30;70.20;;;;;;5051405;28;20067;-47
2022/08/31 09:37:15;;;;;;;4.88;0.70;;;22.50;69.00;;;;;;5030984;28;20056;-46
2022/08/31 09:39:44;;;;;;;3.25;0.88;;;22.60;68.90;;;;;;5014757;28;20045;-48
2022/08/31 09:42:14;;;;;;;2.28;0.60;;;22.60;69.10;;;;;;5029101;28;20049;-47
2022/08/31 09:44:41;;;;;;;1.10;0.60;;;22.80;68.50;;;;;;5039771;28;20480;-45
2022/08/31 09:47:39;;;;;;;7.18;0.60;;;22.80;68.80;;;;;;5053816;28;20556;-47
2022/08/31 09:50:08;;;;;;;1.73;0.45;;;23.00;68.50;;;;;;5037460;28;20769;-47
2022/08/31 09:55:23;;;;;;;3.13;0.73;;;23.20;67.60;;;;;;5037595;28;20042;-45
2022/08/31 09:57:56;;;;;;;4.97;0.60;;;23.30;67.80;;;;;;5034570;28;20458;-46
2022/08/31 10:00:31;;;;;;;1.13;0.60;;;23.40;67.30;;;;;;5038562;28;20045;-42
2022/08/31 10:03:07;;;;;;;3.22;0.47;;;23.50;64.70;;;;;;5041223;28;20046;-45
2022/08/31 10:05:39;;;;;;;1.77;0.50;;;23.40;64.90;;;;;;5035757;28;20075;-47
2022/08/31 10:08:12;;;;;;;3.65;0.75;;;23.30;64.80;;;;;;5018043;28;20048;-45
2022/08/31 10:10:41;;;;;;;6.07;0.82;;;23.40;64.40;;;;;;5025982;28;20038;-43
2022/08/31 10:13:12;;;;;;;4.78;0.63;;;23.30;64.10;;;;;;5044823;28;20046;-48
2022/08/31 10:15:41;;;;;;;2.53;0.50;;;23.20;64.60;;;;;;5035286;28;20080;-47
2022/08/31 10:18:12;;;;;;;0.82;0.50;;;23.40;64.50;;;;;;5033357;28;20080;-49
2022/08/31 10:20:44;;;;;;;3.22;0.68;;;23.60;63.80;;;;;;5054124;28;20044;-45
2022/08/31 10:23:15;;;;;;;1.95;0.60;;;23.50;63.90;;;;;;5024240;28;20094;-46
2022/08/31 10:25:46;;;;;;;2.67;0.60;;;23.50;63.60;;;;;;5016860;28;20045;-48
2022/08/31 10:28:15;;;;;;;2.25;0.55;;;23.60;63.60;;;;;;5036960;28;20049;-50
2022/08/31 10:30:45;;;;;;;3.83;0.80;;;23.70;63.10;;;;;;5024041;28;20496;-46
2022/08/31 10:33:14;;;;;;;4.60;0.50;;;23.80;62.20;;;;;;5054848;28;20144;-47
2022/08/31 10:35:51;;;;;;;2.88;0.60;;;23.90;62.10;;;;;;5054717;28;20504;-49
2022/08/31 10:38:25;;;;;;;0.75;0.52;;;24.00;61.40;;;;;;5037018;28;20532;-48
2022/08/31 10:41:00;;;;;;;4.13;0.82;;;24.10;60.90;;;;;;5053828;28;20041;-49
2022/08/31 10:43:30;;;;;;;3.13;0.52;;;24.20;61.10;;;;;;5054826;28;20056;-46
2022/08/31 10:45:57;;;;;;;0.73;0.47;;;24.30;60.50;;;;;;5054539;28;20095;-42
2022/08/31 10:48:24;;;;;;;2.22;0.60;;;24.30;60.20;;;;;;5035927;28;20053;-47
2022/08/31 10:50:58;;;;;;;3.00;0.60;;;24.30;60.20;;;;;;5038010;28;20041;-48
2022/08/31 10:53:33;;;;;;;4.55;0.52;;;24.40;59.70;;;;;;5037069;28;20071;-49
2022/08/31 10:56:06;;;;;;;2.38;0.55;;;24.30;59.70;;;;;;5036976;28;20060;-47
2022/08/31 10:58:36;;;;;;;2.97;0.73;;;24.30;60.80;;;;;;5053981;28;20040;-50
2022/08/31 11:01:06;;;;;;;1.15;0.57;;;24.60;61.40;;;;;;5052623;28;20084;-44
2022/08/31 11:03:48;;;;;;;1.85;0.50;;;24.60;59.70;;;;;;5034223;28;20050;-46
2022/08/31 11:06:19;;;;;;;1.95;0.60;;;24.60;60.40;;;;;;5033477;28;20057;-49
2022/08/31 11:08:48;;;;;;;2.97;0.70;;;24.80;60.60;;;;;;5016400;28;20524;-47
2022/08/31 11:11:23;;;;;;;2.40;0.70;;;25.00;60.20;;;;;;5018657;28;20387;-49
2022/08/31 11:14:06;;;;;;;1.02;0.52;;;25.20;59.20;;;;;;5021001;28;20051;-51
2022/08/31 11:17:04;;;;;;;4.43;0.80;;;25.30;59.60;;;;;;5034433;28;20049;-46
2022/08/31 11:19:54;;;;;;;4.35;0.60;;;25.50;57.30;;;;;;5006386;28;20099;-43
2022/08/31 11:22:36;;;;;;;1.20;0.63;;;25.50;57.30;;;;;;5049910;28;20585;-50
2022/08/31 11:25:23;;;;;;;3.53;0.60;;;25.40;56.60;;;;;;5022758;28;20124;-49
2022/08/31 11:27:52;;;;;;;1.33;0.60;;;25.40;56.50;;;;;;5032652;28;20053;-47
2022/08/31 11:30:23;;;;;;;2.53;0.80;;;25.40;56.50;;;;;;5033629;28;20099;-42
2022/08/31 11:32:51;;;;;;;1.77;0.57;;;25.50;57.60;;;;;;5053126;28;20392;-50
2022/08/31 11:35:59;;;;;;;4.25;0.80;;;25.60;56.80;;;;;;5053720;28;20481;-50
2022/08/31 11:38:53;;;;;;;0.85;0.50;;;25.60;56.50;;;;;;5041574;28;20400;-49
2022/08/31 11:41:33;;;;;;;2.63;0.60;;;25.50;56.10;;;;;;5052806;28;20092;-47
2022/08/31 11:44:02;;;;;;;2.37;0.53;;;25.50;55.90;;;;;;5036001;28;20073;-49
2022/08/31 11:47:01;;;;;;;3.90;0.50;;;25.50;57.20;;;;;;5053272;28;20044;-48
2022/08/31 11:49:36;;;;;;;1.38;0.50;;;25.70;57.30;;;;;;5035732;28;20053;-48
2022/08/31 11:52:11;;;;;;;1.30;0.50;;;25.80;56.30;;;;;;5049742;28;20497;-48
2022/08/31 11:55:03;;;;;;;1.10;0.40;;;25.90;56.70;;;;;;5053221;28;20716;-47
2022/08/31 11:57:31;;;;;;;2.20;0.40;;;26.10;55.90;;;;;;5034916;28;20510;-46
2022/08/31 11:59:58;;;;;;;1.15;0.73;;;26.10;55.10;;;;;;5052748;28;20473;-44
2022/08/31 12:02:42;;;;;;;2.05;0.60;;;26.20;54.10;;;;;;5026034;28;20110;-47
2022/08/31 12:05:09;;;;;;;5.20;0.68;;;26.10;54.10;;;;;;5053069;28;20048;-46
2022/08/31 12:07:39;;;;;;;7.25;0.63;;;26.10;53.60;;;;;;5052976;28;20045;-46
2022/08/31 12:10:32;;;;;;;3.60;0.50;;;25.90;54.30;;;;;;5051442;28;20041;-47
2022/08/31 12:13:21;;;;;;;1.08;0.70;;;25.90;55.30;;;;;;5052309;28;20077;-45
2022/08/31 12:16:13;;;;;;;3.05;0.70;;;26.00;54.70;;;;;;5052940;28;20040;-43
2022/08/31 12:18:49;;;;;;;0.93;0.60;;;26.10;52.60;;;;;;5046993;28;20311;-45
2022/08/31 12:24:11;;;;;;;4.43;0.60;;;26.10;53.90;;;;;;5048000;28;20045;-43
2022/08/31 12:26:45;;;;;;;1.95;0.60;;;26.20;54.00;;;;;;5034354;28;20047;-44
2022/08/31 12:29:23;;;;;;;1.17;0.55;;;26.30;54.20;;;;;;5052703;28;20041;-46
2022/08/31 12:32:21;;;;;;;1.38;0.63;;;26.50;54.50;;;;;;5052779;28;20107;-48
2022/08/31 12:34:50;;;;;;;2.05;0.50;;;26.50;53.50;;;;;;5032553;28;20123;-49
2022/08/31 12:37:28;;;;;;;1.98;0.60;;;26.40;53.90;;;;;;5034672;28;20060;-48
2022/08/31 12:40:14;;;;;;;3.55;0.63;;;26.50;52.70;;;;;;5047365;28;20098;-46
2022/08/31 12:42:55;;;;;;;2.90;0.60;;;26.50;52.50;;;;;;5051718;28;20123;-45
2022/08/31 12:45:32;;;;;;;3.00;0.50;;;26.60;52.60;;;;;;5034071;28;20085;-46
2022/08/31 12:48:02;;;;;;;1.33;0.50;;;26.70;53.50;;;;;;5052659;28;20071;-46
2022/08/31 12:50:31;;;;;;;4.07;0.73;;;26.90;53.30;;;;;;5052322;28;20400;-42
2022/08/31 12:53:23;;;;;;;2.55;0.50;;;27.00;53.30;;;;;;5051516;28;20581;-44
2022/08/31 12:55:51;;;;;;;7.50;0.80;;;27.10;51.90;;;;;;5051776;28;20045;-46
2022/08/31 12:58:39;;;;;;;3.10;0.60;;;27.10;51.90;;;;;;5052372;28;20132;-45
2022/08/31 13:01:07;;;;;;;2.63;0.60;;;27.10;50.70;;;;;;5052319;28;20138;-44
2022/08/31 13:03:34;;;;;;;1.58;0.50;;;27.00;50.30;;;;;;5024253;28;20045;-42
2022/08/31 13:06:04;;;;;;;3.00;0.50;;;27.10;49.80;;;;;;5017767;28;20473;-44
2022/08/31 13:08:35;;;;;;;2.70;0.75;;;27.10;49.00;;;;;;5034708;28;20049;-47
2022/08/31 13:11:12;;;;;;;;;;;27.20;49.30;;;;;;5049834;28;20081;-46
2022/08/31 13:13:40;;;;;;;1.55;0.52;;;27.20;50.10;;;;;;5050962;28;19962;-45
2022/08/31 13:16:07;;;;;;;2.50;0.52;;;27.20;49.70;;;;;;5038903;28;20089;-42